Camaragibe, Brazil
Current Conditions -  °F | °C
As of 10:00 PM on Thursday 18 Dec 2014 (Local Time) from SBRF Reporting Station
Broken Clouds Broken Clouds  
Wind Chill: 81°   Ceiling: 6000
Heat Index: 85°   Visibility: 6mi
Dew Point: 73°   Wind: 8mph
Humidity: 79%   Direction: 90°E
Pressure: 29.91"   Gusts: NA
Location:  8°S, 35.04°W
Report Text: SBRF 190100Z 09007KT 9999 FEW020 BKN060 27/23 Q1013
Loading
Personal Weather Stations






























Interactive Weather Map New forecast layout! Learn more

10-Day Weather Forecast

Advertisements
Track Severe Weather on mobile